createdAt,value
2018-09-09T00:01:09.371Z,14.71
2018-09-09T00:03:37.922Z,14.63
2018-09-09T00:06:06.785Z,14.64
2018-09-09T00:08:35.096Z,14.68
2018-09-09T00:11:04.621Z,14.63
2018-09-09T00:13:34.441Z,14.59
2018-09-09T00:16:03.168Z,14.55
2018-09-09T00:18:32.193Z,14.56
2018-09-09T00:21:01.239Z,14.52
2018-09-09T00:23:29.537Z,14.53
2018-09-09T00:25:58.239Z,14.50
2018-09-09T00:28:27.160Z,14.45
2018-09-09T00:30:56.578Z,14.38
2018-09-09T00:33:25.292Z,14.39
2018-09-09T00:35:54.160Z,14.35
2018-09-09T00:38:22.568Z,14.38
2018-09-09T00:40:52.285Z,14.33
2018-09-09T00:43:21.628Z,14.41
2018-09-09T00:45:50.214Z,14.35
2018-09-09T00:48:18.680Z,14.35
2018-09-09T00:50:52.693Z,14.31
2018-09-09T00:53:26.778Z,14.24
2018-09-09T00:55:56.400Z,14.20
2018-09-09T00:58:24.944Z,14.13
2018-09-09T01:00:59.804Z,14.05
2018-09-09T01:03:28.762Z,13.94
2018-09-09T01:05:57.740Z,13.92
2018-09-09T01:08:26.770Z,13.99
2018-09-09T01:10:56.451Z,14.08
2018-09-09T01:13:25.068Z,14.04
2018-09-09T01:15:53.678Z,13.97
2018-09-09T01:18:21.974Z,13.92
2018-09-09T01:20:51.194Z,14.01
2018-09-09T01:23:19.584Z,13.96
2018-09-09T01:25:49.733Z,13.93
2018-09-09T01:28:19.384Z,13.88
2018-09-09T01:30:48.494Z,13.85
2018-09-09T01:33:16.990Z,13.82
2018-09-09T01:35:46.086Z,13.84
2018-09-09T01:38:16.005Z,13.79
2018-09-09T01:40:44.323Z,13.74
2018-09-09T01:43:12.642Z,13.72
2018-09-09T01:45:41.715Z,13.75
2018-09-09T01:48:10.031Z,13.73
2018-09-09T01:50:38.430Z,13.66
2018-09-09T01:53:06.968Z,13.56
2018-09-09T01:55:36.047Z,13.52
2018-09-09T01:58:05.338Z,13.48
2018-09-09T02:00:35.057Z,13.44
2018-09-09T02:03:05.934Z,13.43
2018-09-09T02:05:35.385Z,13.44
2018-09-09T02:08:03.812Z,13.38
2018-09-09T02:10:32.348Z,13.34
2018-09-09T02:13:01.652Z,13.35
2018-09-09T02:15:31.093Z,13.35
2018-09-09T02:17:59.999Z,13.38
2018-09-09T02:20:29.671Z,13.43
2018-09-09T02:23:00.889Z,13.44
2018-09-09T02:25:30.284Z,13.40
2018-09-09T02:28:00.246Z,13.37
2018-09-09T02:30:29.823Z,13.26
2018-09-09T02:32:58.190Z,13.24
2018-09-09T02:35:26.752Z,13.15
2018-09-09T02:37:56.073Z,13.17
2018-09-09T02:40:24.446Z,13.18
2018-09-09T02:42:54.403Z,13.17
2018-09-09T02:45:24.776Z,13.12
2018-09-09T02:47:53.559Z,13.14
2018-09-09T02:50:23.532Z,13.13
2018-09-09T02:52:51.875Z,13.10
2018-09-09T02:55:20.937Z,13.09
2018-09-09T02:57:49.238Z,13.07
2018-09-09T03:00:17.597Z,13.06
2018-09-09T03:02:47.306Z,13.09
2018-09-09T03:05:17.280Z,13.14
2018-09-09T03:07:46.448Z,13.13
2018-09-09T03:10:16.201Z,13.04
2018-09-09T03:12:45.576Z,12.91
2018-09-09T03:15:14.234Z,12.92
2018-09-09T03:17:42.540Z,12.84
2018-09-09T03:20:11.012Z,12.82
2018-09-09T03:22:39.304Z,12.75
2018-09-09T03:25:08.325Z,12.73
2018-09-09T03:27:37.497Z,12.69
2018-09-09T03:30:06.635Z,12.67
2018-09-09T03:32:34.907Z,12.62
2018-09-09T03:35:03.850Z,12.60
2018-09-09T03:37:32.274Z,12.51
2018-09-09T03:40:01.824Z,12.51
2018-09-09T03:42:30.671Z,12.53
2018-09-09T03:44:59.016Z,12.57
2018-09-09T03:47:27.622Z,12.57
2018-09-09T03:49:56.676Z,12.49
2018-09-09T03:52:25.391Z,12.46
2018-09-09T03:54:54.147Z,12.42
2018-09-09T03:57:22.449Z,12.41
2018-09-09T03:59:50.953Z,12.41
2018-09-09T04:02:20.374Z,12.45
2018-09-09T04:04:48.752Z,12.44
2018-09-09T04:07:17.227Z,12.43
2018-09-09T04:09:46.491Z,12.42
2018-09-09T04:12:15.548Z,12.41
2018-09-09T04:14:45.542Z,12.42
2018-09-09T04:17:14.268Z,12.38
2018-09-09T04:19:43.263Z,12.31
2018-09-09T04:22:12.084Z,12.34
2018-09-09T04:24:41.166Z,12.37
2018-09-09T04:27:09.844Z,12.36
2018-09-09T04:29:38.612Z,12.30
2018-09-09T04:32:10.505Z,12.27
2018-09-09T04:34:38.839Z,12.23
2018-09-09T04:37:07.855Z,12.27
2018-09-09T04:39:36.127Z,12.28
2018-09-09T04:42:12.357Z,12.22
2018-09-09T04:44:40.881Z,12.17
2018-09-09T04:47:09.705Z,12.32
2018-09-09T04:49:38.335Z,12.27
2018-09-09T04:52:07.446Z,12.27
2018-09-09T04:54:35.675Z,12.35
2018-09-09T04:57:03.941Z,12.32
2018-09-09T04:59:32.630Z,12.38
2018-09-09T05:02:00.952Z,12.52
2018-09-09T05:04:29.826Z,12.45
2018-09-09T05:06:58.169Z,12.45
2018-09-09T05:09:28.403Z,12.49
2018-09-09T05:11:57.582Z,12.50
2018-09-09T05:14:27.296Z,12.60
2018-09-09T05:16:55.654Z,12.67
2018-09-09T05:19:25.457Z,12.71
2018-09-09T05:21:54.651Z,12.79
2018-09-09T05:24:23.256Z,12.73
2018-09-09T05:26:52.846Z,12.72
2018-09-09T05:29:22.822Z,12.65
2018-09-09T05:31:51.546Z,12.74
2018-09-09T05:34:20.880Z,12.88
2018-09-09T05:36:50.036Z,12.98
2018-09-09T05:39:19.164Z,13.07
2018-09-09T05:41:47.759Z,13.14
2018-09-09T05:44:16.646Z,13.26
2018-09-09T05:46:46.709Z,13.24
2018-09-09T05:49:16.415Z,13.29
2018-09-09T05:51:46.885Z,13.40
2018-09-09T05:54:16.393Z,13.48
2018-09-09T05:56:47.427Z,13.67
2018-09-09T05:59:16.464Z,13.74
2018-09-09T06:01:45.312Z,13.74
2018-09-09T06:04:13.691Z,13.81
2018-09-09T06:06:42.771Z,13.71
2018-09-09T06:09:12.026Z,13.89
2018-09-09T06:11:41.245Z,13.89
2018-09-09T06:14:09.660Z,13.91
2018-09-09T06:16:38.169Z,13.99
2018-09-09T06:19:08.661Z,14.13
2018-09-09T06:21:37.093Z,14.35
2018-09-09T06:24:06.013Z,14.42
2018-09-09T06:26:34.359Z,14.68
2018-09-09T06:29:02.962Z,14.87
2018-09-09T06:31:31.932Z,15.25
2018-09-09T06:34:01.046Z,15.22
2018-09-09T06:36:29.310Z,15.35
2018-09-09T06:38:58.406Z,15.65
2018-09-09T06:41:26.716Z,15.73
2018-09-09T06:43:55.776Z,15.68
2018-09-09T06:46:24.131Z,15.92
2018-09-09T06:48:52.684Z,15.95
2018-09-09T06:51:22.351Z,15.90
2018-09-09T06:53:51.465Z,16.08
2018-09-09T06:56:20.260Z,16.02
2018-09-09T06:58:48.480Z,15.94
2018-09-09T07:01:17.188Z,15.93
2018-09-09T07:03:45.992Z,16.23
2018-09-09T07:06:14.259Z,16.07
2018-09-09T07:08:42.486Z,16.05
2018-09-09T07:11:11.109Z,16.15
2018-09-09T07:13:40.061Z,16.23
2018-09-09T07:16:08.436Z,16.33
2018-09-09T07:18:36.860Z,16.49
2018-09-09T07:21:06.310Z,16.42
2018-09-09T07:23:34.993Z,16.72
2018-09-09T07:26:05.191Z,16.97
2018-09-09T07:28:33.554Z,16.85
2018-09-09T07:31:02.072Z,17.12
2018-09-09T07:33:31.433Z,17.20
2018-09-09T07:36:01.218Z,17.40
2018-09-09T07:38:30.346Z,17.68
2018-09-09T07:40:59.175Z,17.68
2018-09-09T07:43:28.590Z,18.17
2018-09-09T07:45:58.068Z,17.87
2018-09-09T07:48:27.652Z,17.71
2018-09-09T07:50:56.310Z,18.18
2018-09-09T07:53:26.606Z,18.34
2018-09-09T07:55:55.146Z,18.43
2018-09-09T07:58:23.500Z,18.58
2018-09-09T08:00:52.485Z,18.76
2018-09-09T08:03:21.488Z,18.95
2018-09-09T08:05:49.814Z,18.95
2018-09-09T08:08:18.492Z,18.98
2018-09-09T08:10:47.087Z,18.87
2018-09-09T08:13:16.185Z,19.17
2018-09-09T08:15:44.877Z,19.35
2018-09-09T08:18:13.332Z,19.28
2018-09-09T08:20:41.597Z,19.24
2018-09-09T08:23:11.282Z,19.38
2018-09-09T08:25:39.561Z,19.36
2018-09-09T08:28:09.069Z,19.67
2018-09-09T08:30:37.692Z,20.05
2018-09-09T08:33:06.416Z,19.94
2018-09-09T08:35:35.641Z,20.16
2018-09-09T08:38:04.244Z,19.66
2018-09-09T08:40:32.540Z,19.98
2018-09-09T08:43:01.696Z,20.12
2018-09-09T08:45:30.693Z,20.34
2018-09-09T08:47:59.230Z,20.44
2018-09-09T08:50:27.720Z,20.28
2018-09-09T08:52:56.573Z,20.68
2018-09-09T08:55:24.993Z,21.07
2018-09-09T08:57:53.873Z,21.29
2018-09-09T09:00:22.744Z,21.57
2018-09-09T09:02:51.930Z,21.71
2018-09-09T09:05:21.108Z,21.58
2018-09-09T09:07:49.781Z,21.98
2018-09-09T09:10:18.692Z,22.21
2018-09-09T09:12:47.666Z,22.49
2018-09-09T09:15:16.056Z,22.73
2018-09-09T09:17:44.998Z,22.60
2018-09-09T09:20:13.380Z,22.99
2018-09-09T09:22:42.575Z,22.86
2018-09-09T09:25:11.072Z,22.83
2018-09-09T09:27:39.573Z,23.39
2018-09-09T09:30:09.234Z,23.80
2018-09-09T09:32:39.468Z,23.69
2018-09-09T09:35:08.703Z,23.93
2018-09-09T09:37:37.383Z,23.65
2018-09-09T09:40:07.431Z,24.33
2018-09-09T09:42:36.447Z,24.52
2018-09-09T09:45:05.235Z,24.64
2018-09-09T09:47:33.718Z,24.71
2018-09-09T09:50:02.071Z,25.27
2018-09-09T09:52:31.210Z,24.94
2018-09-09T09:55:00.479Z,25.63
2018-09-09T09:57:29.188Z,26.14
2018-09-09T09:59:58.429Z,26.57
2018-09-09T10:02:28.067Z,26.38
2018-09-09T10:04:57.385Z,26.04
2018-09-09T10:07:26.553Z,26.37
2018-09-09T10:09:54.872Z,25.98
2018-09-09T10:12:26.351Z,25.92
2018-09-09T10:14:59.343Z,26.44
2018-09-09T10:17:30.912Z,26.36
2018-09-09T10:20:01.367Z,27.04
2018-09-09T10:22:32.049Z,26.54
2018-09-09T10:25:01.746Z,26.90
2018-09-09T10:27:32.326Z,27.61
2018-09-09T10:30:02.513Z,27.22
2018-09-09T10:32:33.011Z,26.99
2018-09-09T10:35:01.456Z,26.95
2018-09-09T10:37:29.934Z,26.70
2018-09-09T10:39:59.780Z,26.98
2018-09-09T10:42:29.127Z,26.89
2018-09-09T10:44:57.640Z,27.90
2018-09-09T10:47:26.162Z,28.15
2018-09-09T10:49:55.682Z,27.54
2018-09-09T10:52:24.050Z,27.66
2018-09-09T10:54:52.794Z,27.99
2018-09-09T10:57:21.925Z,28.57
2018-09-09T10:59:53.931Z,28.20
2018-09-09T11:02:23.090Z,27.99
2018-09-09T11:04:52.519Z,28.36
2018-09-09T11:07:22.225Z,27.72
2018-09-09T11:09:50.537Z,27.00
2018-09-09T11:12:23.403Z,27.21
2018-09-09T11:14:52.072Z,27.58
2018-09-09T11:17:21.145Z,27.47
2018-09-09T11:19:49.834Z,27.27
2018-09-09T11:22:18.561Z,27.42
2018-09-09T11:24:46.797Z,26.92
2018-09-09T11:27:15.164Z,27.21
2018-09-09T11:29:43.784Z,27.48
2018-09-09T11:32:13.206Z,27.25
2018-09-09T11:34:43.600Z,27.63
2018-09-09T11:37:13.023Z,28.22
2018-09-09T11:39:42.613Z,27.54
2018-09-09T11:42:11.227Z,27.62
2018-09-09T11:44:40.021Z,27.51
2018-09-09T11:47:09.003Z,27.28
2018-09-09T11:49:38.896Z,28.15
2018-09-09T11:52:08.092Z,27.81
2018-09-09T11:54:37.628Z,28.22
2018-09-09T11:57:06.464Z,28.09
2018-09-09T11:59:35.146Z,27.85
2018-09-09T12:02:05.009Z,28.06
2018-09-09T12:04:33.365Z,28.08
2018-09-09T12:07:01.841Z,28.01
2018-09-09T12:09:30.346Z,27.71
2018-09-09T12:12:00.820Z,27.85
2018-09-09T12:14:29.220Z,27.99
2018-09-09T12:16:58.565Z,28.07
2018-09-09T12:19:27.841Z,28.63
2018-09-09T12:21:56.301Z,29.20
2018-09-09T12:24:25.219Z,29.14
2018-09-09T12:26:55.916Z,28.99
2018-09-09T12:29:24.149Z,29.37
2018-09-09T12:31:52.377Z,28.33
2018-09-09T12:34:20.699Z,28.76
2018-09-09T12:36:49.145Z,28.93
2018-09-09T12:39:18.036Z,29.22
2018-09-09T12:41:46.605Z,29.48
2018-09-09T12:44:20.623Z,29.21
2018-09-09T12:46:55.766Z,29.05
2018-09-09T12:49:24.155Z,28.99
2018-09-09T12:51:52.907Z,29.15
2018-09-09T12:54:22.124Z,29.75
2018-09-09T12:56:50.779Z,29.53
2018-09-09T12:59:19.381Z,29.25
2018-09-09T13:01:47.625Z,29.61
2018-09-09T13:04:16.784Z,29.82
2018-09-09T13:06:45.133Z,30.20
2018-09-09T13:09:13.615Z,29.93
2018-09-09T13:11:43.387Z,30.39
2018-09-09T13:14:13.753Z,30.71
2018-09-09T13:16:44.709Z,31.16
2018-09-09T13:19:13.041Z,32.58
2018-09-09T13:21:45.647Z,33.54
2018-09-09T13:24:14.997Z,33.78
2018-09-09T13:26:43.700Z,34.66
2018-09-09T13:29:14.238Z,34.89
2018-09-09T13:31:44.091Z,36.78
2018-09-09T13:34:12.899Z,36.58
2018-09-09T13:36:41.769Z,38.42
2018-09-09T13:39:10.491Z,36.85
2018-09-09T13:41:39.087Z,37.87
2018-09-09T13:44:08.809Z,37.60
2018-09-09T13:46:37.324Z,38.64
2018-09-09T13:49:08.809Z,40.41
2018-09-09T13:51:38.686Z,38.92
2018-09-09T13:54:07.276Z,38.91
2018-09-09T13:56:36.207Z,38.29
2018-09-09T13:59:05.687Z,37.39
2018-09-09T14:01:34.239Z,37.92
2018-09-09T14:04:04.916Z,37.99
2018-09-09T14:06:33.427Z,38.46
2018-09-09T14:09:04.176Z,39.64
2018-09-09T14:11:32.706Z,38.15
2018-09-09T14:14:01.972Z,41.25
2018-09-09T14:16:30.305Z,39.85
2018-09-09T14:18:59.404Z,39.49
2018-09-09T14:21:28.014Z,41.59
2018-09-09T14:23:56.935Z,41.42
2018-09-09T14:26:26.900Z,40.72
2018-09-09T14:28:56.080Z,40.23
2018-09-09T14:31:24.694Z,40.35
2018-09-09T14:33:54.182Z,40.76
2018-09-09T14:36:22.715Z,42.25
2018-09-09T14:38:52.079Z,41.06
2018-09-09T14:41:22.112Z,41.42
2018-09-09T14:43:51.961Z,40.87
2018-09-09T14:46:23.389Z,40.27
2018-09-09T14:48:53.440Z,40.97
2018-09-09T14:51:22.355Z,40.78
2018-09-09T14:53:53.151Z,40.34
2018-09-09T14:56:21.889Z,41.14
2018-09-09T14:58:50.615Z,41.26
2018-09-09T15:01:19.065Z,43.87
2018-09-09T15:03:47.990Z,39.43
2018-09-09T15:06:17.542Z,40.33
2018-09-09T15:08:46.931Z,39.55
2018-09-09T15:11:16.317Z,40.78
2018-09-09T15:13:44.958Z,42.35
2018-09-09T15:16:13.909Z,43.72
2018-09-09T15:18:44.057Z,44.73
2018-09-09T15:21:12.455Z,43.01
2018-09-09T15:23:41.003Z,42.91
2018-09-09T15:26:09.983Z,42.25
2018-09-09T15:28:38.618Z,42.31
2018-09-09T15:31:07.174Z,41.61
2018-09-09T15:33:36.394Z,42.93
2018-09-09T15:36:04.844Z,40.86
2018-09-09T15:38:33.731Z,40.45
2018-09-09T15:41:02.684Z,41.11
2018-09-09T15:43:31.708Z,40.78
2018-09-09T15:46:00.032Z,41.49
2018-09-09T15:48:29.025Z,41.13
2018-09-09T15:50:57.316Z,40.54
2018-09-09T15:53:25.957Z,40.07
2018-09-09T15:55:54.224Z,42.15
2018-09-09T15:58:22.585Z,42.81
2018-09-09T16:00:51.177Z,42.41
2018-09-09T16:03:19.746Z,42.19
2018-09-09T16:05:48.334Z,41.94
2018-09-09T16:08:17.926Z,41.60
2018-09-09T16:10:47.806Z,41.21
2018-09-09T16:13:16.500Z,42.38
2018-09-09T16:15:44.743Z,39.94
2018-09-09T16:18:13.201Z,42.08
2018-09-09T16:20:42.098Z,40.94
2018-09-09T16:23:11.176Z,39.78
2018-09-09T16:25:39.514Z,39.10
2018-09-09T16:28:08.945Z,39.29
2018-09-09T16:30:39.184Z,38.23
2018-09-09T16:33:07.841Z,35.76
2018-09-09T16:35:36.498Z,35.50
2018-09-09T16:38:05.444Z,36.70
2018-09-09T16:40:34.602Z,36.99
2018-09-09T16:43:02.977Z,36.97
2018-09-09T16:45:31.838Z,36.63
2018-09-09T16:48:01.734Z,37.42
2018-09-09T16:50:30.990Z,38.17
2018-09-09T16:52:59.328Z,37.19
2018-09-09T16:55:27.679Z,37.45
2018-09-09T16:57:56.136Z,34.93
2018-09-09T17:00:24.660Z,32.56
2018-09-09T17:02:53.711Z,31.76
2018-09-09T17:05:22.489Z,30.04
2018-09-09T17:07:51.090Z,28.82
2018-09-09T17:10:19.794Z,28.13
2018-09-09T17:12:48.152Z,27.83
2018-09-09T17:15:16.806Z,27.59
2018-09-09T17:17:45.889Z,27.24
2018-09-09T17:20:15.000Z,26.95
2018-09-09T17:22:44.764Z,26.58
2018-09-09T17:25:13.316Z,26.74
2018-09-09T17:27:42.243Z,26.39
2018-09-09T17:30:10.552Z,26.41
2018-09-09T17:32:39.171Z,25.74
2018-09-09T17:35:07.466Z,25.47
2018-09-09T17:37:35.904Z,25.22
2018-09-09T17:40:04.525Z,25.08
2018-09-09T17:42:33.818Z,25.24
2018-09-09T17:45:02.063Z,25.05
2018-09-09T17:47:30.574Z,25.13
2018-09-09T17:50:00.720Z,24.95
2018-09-09T17:52:30.611Z,24.76
2018-09-09T17:54:59.721Z,24.39
2018-09-09T17:57:29.361Z,24.21
2018-09-09T17:59:58.932Z,24.16
2018-09-09T18:02:28.202Z,24.00
2018-09-09T18:04:57.147Z,23.71
2018-09-09T18:07:25.642Z,23.61
2018-09-09T18:09:54.309Z,23.55
2018-09-09T18:12:23.658Z,23.28
2018-09-09T18:14:51.960Z,23.00
2018-09-09T18:17:21.587Z,22.91
2018-09-09T18:19:49.839Z,22.82
2018-09-09T18:22:19.703Z,22.77
2018-09-09T18:24:49.052Z,22.62
2018-09-09T18:27:18.093Z,22.56
2018-09-09T18:29:47.562Z,22.49
2018-09-09T18:32:16.980Z,22.18
2018-09-09T18:34:46.060Z,22.18
2018-09-09T18:37:16.789Z,22.14
2018-09-09T18:39:45.244Z,21.96
2018-09-09T18:42:14.497Z,21.84
2018-09-09T18:44:45.006Z,21.74
2018-09-09T18:47:15.106Z,21.66
2018-09-09T18:49:43.986Z,21.52
2018-09-09T18:52:13.132Z,21.34
2018-09-09T18:54:42.612Z,21.29
2018-09-09T18:57:12.305Z,21.38
2018-09-09T18:59:41.012Z,21.40
2018-09-09T19:02:09.507Z,21.33
2018-09-09T19:04:38.819Z,21.11
2018-09-09T19:07:07.476Z,21.16
2018-09-09T19:09:36.049Z,21.05
2018-09-09T19:12:06.678Z,21.03
2018-09-09T19:14:35.296Z,20.86
2018-09-09T19:17:04.901Z,20.76
2018-09-09T19:19:33.213Z,20.68
2018-09-09T19:22:01.621Z,20.63
2018-09-09T19:24:30.157Z,20.34
2018-09-09T19:26:59.100Z,20.41
2018-09-09T19:29:27.386Z,20.46
2018-09-09T19:31:56.236Z,20.32
2018-09-09T19:34:26.797Z,20.35
2018-09-09T19:36:55.966Z,20.46
2018-09-09T19:39:24.212Z,20.36
2018-09-09T19:41:54.949Z,20.23
2018-09-09T19:44:24.008Z,20.05
2018-09-09T19:46:52.416Z,19.90
2018-09-09T19:49:21.833Z,19.72
2018-09-09T19:51:50.939Z,19.78
2018-09-09T19:54:19.482Z,19.62
2018-09-09T19:56:48.769Z,19.79
2018-09-09T19:59:17.629Z,19.68
2018-09-09T20:01:45.960Z,19.55
2018-09-09T20:04:14.262Z,19.45
2018-09-09T20:06:43.935Z,19.56
2018-09-09T20:09:14.712Z,19.54
2018-09-09T20:11:44.017Z,19.46
2018-09-09T20:14:15.452Z,19.36
2018-09-09T20:16:44.501Z,19.35
2018-09-09T20:19:13.852Z,19.37
2018-09-09T20:21:43.624Z,19.10
2018-09-09T20:24:13.587Z,19.13
2018-09-09T20:26:42.227Z,19.12
2018-09-09T20:29:11.083Z,19.23
2018-09-09T20:31:39.593Z,19.14
2018-09-09T20:34:08.243Z,19.02
2018-09-09T20:36:37.699Z,18.95
2018-09-09T20:39:09.923Z,18.88
2018-09-09T20:41:38.536Z,18.82
2018-09-09T20:44:07.293Z,18.69
2018-09-09T20:46:36.260Z,18.54
2018-09-09T20:49:05.774Z,18.41
2018-09-09T20:51:34.928Z,18.30
2018-09-09T20:54:03.444Z,18.26
2018-09-09T20:56:31.728Z,18.21
2018-09-09T20:59:00.304Z,18.18
2018-09-09T21:01:29.599Z,18.04
2018-09-09T21:03:59.041Z,17.92
2018-09-09T21:06:27.883Z,17.92
2018-09-09T21:08:57.837Z,17.87
2018-09-09T21:11:29.987Z,17.88
2018-09-09T21:13:59.470Z,18.05
2018-09-09T21:16:27.800Z,18.08
2018-09-09T21:18:56.848Z,17.96
2018-09-09T21:21:26.769Z,17.88
2018-09-09T21:23:55.812Z,17.74
2018-09-09T21:26:24.974Z,17.71
2018-09-09T21:28:58.310Z,17.63
2018-09-09T21:31:27.258Z,17.66
2018-09-09T21:33:55.556Z,17.61
2018-09-09T21:36:24.518Z,17.55
2018-09-09T21:38:53.524Z,17.51
2018-09-09T21:41:22.368Z,17.46
2018-09-09T21:43:51.024Z,17.36
2018-09-09T21:46:21.575Z,17.31
2018-09-09T21:48:51.507Z,17.21
2018-09-09T21:51:20.816Z,17.19
2018-09-09T21:53:49.951Z,17.23
2018-09-09T21:56:20.401Z,17.30
2018-09-09T21:58:48.864Z,17.20
2018-09-09T22:01:23.660Z,17.25
2018-09-09T22:03:58.099Z,17.22
2018-09-09T22:06:27.860Z,17.12
2018-09-09T22:08:57.861Z,17.17
2018-09-09T22:11:28.225Z,17.16
2018-09-09T22:13:56.482Z,17.07
2018-09-09T22:16:25.455Z,16.92
2018-09-09T22:18:54.227Z,16.78
2018-09-09T22:21:23.316Z,16.70
2018-09-09T22:23:51.655Z,16.66
2018-09-09T22:26:22.240Z,16.61
2018-09-09T22:28:51.184Z,16.59
2018-09-09T22:31:19.905Z,16.55
2018-09-09T22:33:48.315Z,16.46
2018-09-09T22:36:16.601Z,16.43
2018-09-09T22:38:45.183Z,16.47
2018-09-09T22:41:13.400Z,16.51
2018-09-09T22:43:42.894Z,16.46
2018-09-09T22:46:11.089Z,16.46
2018-09-09T22:48:40.583Z,16.29
2018-09-09T22:51:09.184Z,16.20
2018-09-09T22:53:38.006Z,16.19
2018-09-09T22:56:06.594Z,16.23
2018-09-09T22:58:34.952Z,16.31
2018-09-09T23:01:04.238Z,16.39
2018-09-09T23:03:32.999Z,16.33
2018-09-09T23:06:02.483Z,16.26
2018-09-09T23:08:31.714Z,16.32
2018-09-09T23:11:00.280Z,16.37
2018-09-09T23:13:30.273Z,16.34
2018-09-09T23:15:58.757Z,16.21
2018-09-09T23:18:28.680Z,16.19
2018-09-09T23:20:58.467Z,16.25
2018-09-09T23:23:27.373Z,16.17
2018-09-09T23:25:55.735Z,16.15
2018-09-09T23:28:25.237Z,16.08
2018-09-09T23:30:54.683Z,16.00
2018-09-09T23:33:24.304Z,15.88
2018-09-09T23:35:54.965Z,15.77
2018-09-09T23:38:23.405Z,15.67
2018-09-09T23:40:52.552Z,15.61
2018-09-09T23:43:23.160Z,15.63
2018-09-09T23:45:52.570Z,15.54
2018-09-09T23:48:21.735Z,15.43
2018-09-09T23:50:50.384Z,15.40
2018-09-09T23:53:19.658Z,15.37
2018-09-09T23:55:48.523Z,15.39
2018-09-09T23:58:17.616Z,15.35
